Time;durP1;ratioP1;P1;durP2;ratioP2;P2;SDS_P1;SDS_P2;PMS_P1;PMS_P2;Temp;Humidity;BMP_temperature;BMP_pressure;BME280_temperature;BME280_humidity;BME280_pressure;Samples;Min_cycle;Max_cycle;Signal;HPM_P1;HPM_P2
2023/10/18 00:01:16;;;;;;;36.73;14.45;;;;;;;4.20;100.00;101001.56;4777746;60;1141052;-81
2023/10/18 00:06:23;;;;;;;29.07;13.13;;;;;;;4.12;100.00;101005.84;4800749;59;1141136;-71
2023/10/18 00:11:28;;;;;;;31.40;12.20;;;;;;;4.06;100.00;100999.55;4769918;59;1141058;-75
2023/10/18 00:16:35;;;;;;;25.65;12.65;;;;;;;4.03;100.00;100998.36;4784360;57;1141148;-78
2023/10/18 00:21:40;;;;;;;28.17;14.75;;;;;;;4.04;100.00;100992.67;4821012;60;1141171;-77
2023/10/18 00:26:46;;;;;;;31.30;13.07;;;;;;;4.01;100.00;100993.65;4802177;58;1140913;-78
2023/10/18 00:31:52;;;;;;;33.98;14.50;;;;;;;3.88;100.00;100988.09;4795640;60;1141123;-79
2023/10/18 00:36:58;;;;;;;34.00;14.93;;;;;;;3.76;100.00;100979.46;4774351;59;1140886;-82
2023/10/18 00:47:27;;;;;;;28.20;12.57;;;;;;;3.67;100.00;100976.36;4724682;59;1141048;-67
2023/10/18 00:52:35;;;;;;;35.40;13.60;;;;;;;3.69;100.00;100978.00;4753717;57;1141315;-71
2023/10/18 00:57:40;;;;;;;34.58;15.53;;;;;;;3.65;100.00;100961.22;4847188;58;1141457;-79
2023/10/18 01:02:49;;;;;;;42.78;14.30;;;;;;;3.64;100.00;100955.59;4827756;58;1140925;-81
2023/10/18 01:07:54;;;;;;;30.20;14.73;;;;;;;3.43;100.00;100956.86;4832454;58;1140925;-78
2023/10/18 01:13:01;;;;;;;33.40;15.13;;;;;;;3.43;100.00;100956.86;4816235;59;1141237;-79
2023/10/18 01:18:07;;;;;;;29.40;13.27;;;;;;;3.42;100.00;100958.23;4976214;57;1141418;-74
2023/10/18 01:23:13;;;;;;;26.30;12.87;;;;;;;3.39;100.00;100965.73;4979851;57;1140931;-76
2023/10/18 01:28:19;;;;;;;30.50;12.93;;;;;;;3.42;100.00;100965.62;4999993;57;1140714;-74
2023/10/18 01:33:26;;;;;;;35.80;15.77;;;;;;;3.43;100.00;100958.63;4979928;57;1140824;-78
2023/10/18 01:38:31;;;;;;;40.23;15.25;;;;;;;3.38;100.00;100956.65;4993910;57;1141368;-74
2023/10/18 01:43:43;;;;;;;45.67;14.73;;;;;;;3.22;100.00;100959.48;5001217;56;1140806;-83
2023/10/18 01:48:52;;;;;;;36.90;15.77;;;;;;;3.13;100.00;100956.80;4986468;57;1141193;-73
2023/10/18 01:53:55;;;;;;;35.43;15.23;;;;;;;3.10;100.00;100959.53;4949519;57;1140999;-75
2023/10/18 01:59:04;;;;;;;28.47;13.43;;;;;;;3.10;100.00;100960.84;4926540;57;1141563;-79
2023/10/18 02:04:11;;;;;;;45.10;18.63;;;;;;;3.12;100.00;100964.24;4908855;57;1140942;-80
2023/10/18 02:09:16;;;;;;;32.85;16.07;;;;;;;3.12;100.00;100972.08;4911149;57;1140969;-79
2023/10/18 02:14:22;;;;;;;34.40;15.13;;;;;;;3.12;100.00;100966.40;4931822;58;1140703;-71
2023/10/18 02:19:27;;;;;;;33.83;14.33;;;;;;;3.09;100.00;100970.44;4789751;59;1141207;-76
2023/10/18 02:24:33;;;;;;;25.52;14.10;;;;;;;3.07;100.00;100964.41;4912487;57;1141119;-76
2023/10/18 02:29:39;;;;;;;29.57;13.75;;;;;;;3.04;100.00;100954.11;4800065;59;1141377;-75
2023/10/18 02:34:45;;;;;;;22.13;10.68;;;;;;;3.07;100.00;100946.13;4793006;58;1141485;-78
2023/10/18 02:40:07;;;;;;;29.82;13.30;;;;;;;3.06;100.00;100940.50;4908857;57;1140976;-76
2023/10/18 02:44:59;;;;;;;34.40;15.90;;;;;;;3.14;100.00;100935.83;4920793;58;1141063;-75
2023/10/18 02:50:05;;;;;;;36.67;16.20;;;;;;;3.22;100.00;100928.97;4791079;59;1140990;-75
2023/10/18 02:55:18;;;;;;;33.97;15.60;;;;;;;3.23;100.00;100938.52;4790865;60;1141208;-75
2023/10/18 03:00:20;;;;;;;42.17;18.83;;;;;;;3.23;100.00;100938.52;4926685;57;1140915;-79
2023/10/18 03:05:28;;;;;;;44.90;18.57;;;;;;;3.25;100.00;100934.08;4936408;57;1140783;-79
2023/10/18 03:10:33;;;;;;;35.68;17.52;;;;;;;3.31;100.00;100943.45;4910512;57;1141426;-72
2023/10/18 03:20:52;;;;;;;30.82;15.10;;;;;;;3.38;100.00;100945.73;4695377;59;1140963;-74
2023/10/18 03:26:08;;;;;;;27.50;14.27;;;;;;;3.27;100.00;100938.80;4793593;57;1140830;-67
2023/10/18 03:31:27;;;;;;;28.80;13.58;;;;;;;3.06;100.00;100937.03;4706443;60;1140633;-67
2023/10/18 03:36:26;;;;;;;29.60;14.77;;;;;;;2.98;100.00;100931.28;4747416;60;1140929;-75
2023/10/18 03:41:34;;;;;;;45.83;19.97;;;;;;;2.98;100.00;100925.59;4786064;60;1141154;-77
2023/10/18 03:46:52;;;;;;;38.97;19.57;;;;;;;3.12;100.00;100915.44;4906671;58;1140912;-72
2023/10/18 03:51:48;;;;;;;32.70;15.60;;;;;;;3.23;100.00;100904.54;4912992;58;1140998;-78
2023/10/18 03:56:55;;;;;;;36.77;17.77;;;;;;;3.25;100.00;100898.80;4911891;57;1141001;-77
2023/10/18 04:02:27;;;;;;;38.27;19.10;;;;;;;3.22;100.00;100906.76;4796147;59;1140851;-82
2023/10/18 04:07:26;;;;;;;30.97;15.47;;;;;;;3.12;100.00;100906.75;4703944;59;1140977;-70
2023/10/18 04:12:32;;;;;;;31.40;15.53;;;;;;;3.07;100.00;100904.31;4788671;58;1140934;-70
2023/10/18 04:17:39;;;;;;;31.73;15.77;;;;;;;3.12;100.00;100896.30;4870259;58;1141000;-74
2023/10/18 04:22:46;;;;;;;40.77;18.13;;;;;;;3.11;100.00;100890.67;4875733;59;1141034;-74
2023/10/18 04:27:53;;;;;;;47.45;16.70;;;;;;;3.15;100.00;100896.18;4874042;59;1141157;-68
2023/10/18 04:33:00;;;;;;;47.60;18.60;;;;;;;3.16;100.00;100885.66;4744006;60;1141435;-69
2023/10/18 04:38:20;;;;;;;66.77;32.37;;;;;;;3.07;100.00;100879.94;4910035;57;1141260;-71
2023/10/18 04:43:12;;;;;;;96.70;43.23;;;;;;;2.98;100.00;100872.49;4934384;57;1140933;-70
2023/10/18 04:48:18;;;;;;;129.53;62.03;;;;;;;2.93;100.00;100870.06;4899341;58;1140786;-66
2023/10/18 04:53:24;;;;;;;78.70;38.23;;;;;;;2.93;100.00;100862.22;4835075;59;1143168;-67
2023/10/18 04:58:30;;;;;;;127.90;53.70;;;;;;;2.84;100.00;100858.69;4762393;59;1140794;-69
2023/10/18 05:03:37;;;;;;;35.93;15.57;;;;;;;2.83;100.00;100857.84;4799651;58;1143021;-66
2023/10/18 05:08:42;;;;;;;29.67;14.37;;;;;;;2.75;100.00;100861.19;4874804;57;1144499;-68
2023/10/18 05:13:48;;;;;;;21.25;11.85;;;;;;;2.70;100.00;100863.61;4903114;56;1141083;-70
2023/10/18 05:18:54;;;;;;;22.75;10.95;;;;;;;2.70;100.00;100867.08;4870879;58;1140904;-68
2023/10/18 05:23:59;;;;;;;22.93;10.90;;;;;;;2.82;100.00;100873.56;4778442;59;1141034;-65
2023/10/18 05:29:05;;;;;;;26.23;11.93;;;;;;;3.04;100.00;100864.42;4679721;60;1143497;-68
2023/10/18 05:44:31;;;;;;;23.50;11.93;;;;;;;3.01;100.00;100854.94;4914917;56;1141069;-68
2023/10/18 05:49:41;;;;;;;22.17;11.93;;;;;;;2.94;100.00;100853.92;4911244;56;1141977;-69
2023/10/18 05:54:44;;;;;;;43.98;12.98;;;;;;;2.98;100.00;100856.36;4934681;57;1149065;-68
2023/10/18 05:59:50;;;;;;;28.87;12.65;;;;;;;2.99;100.00;100855.91;4899133;58;1140889;-69
2023/10/18 06:04:55;;;;;;;24.05;12.58;;;;;;;3.03;100.00;100856.19;4853421;58;1142919;-68
2023/10/18 06:10:09;;;;;;;25.60;12.80;;;;;;;3.07;100.00;100864.27;4783071;59;1141649;-70
2023/10/18 06:15:11;;;;;;;20.43;12.53;;;;;;;3.27;100.00;100862.99;4814974;59;1141170;-69
2023/10/18 06:20:27;;;;;;;18.43;10.13;;;;;;;3.47;100.00;100858.23;4739173;60;1141344;-68
2023/10/18 06:25:26;;;;;;;25.68;12.35;;;;;;;3.54;100.00;100859.66;4952628;57;1141027;-69
2023/10/18 06:30:35;;;;;;;31.97;11.47;;;;;;;3.68;100.00;100849.89;4966995;58;1140819;-69
2023/10/18 06:35:51;;;;;;;20.93;12.87;;;;;;;3.97;100.00;100848.17;4893895;58;1140753;-68
2023/10/18 06:46:05;;;;;;;25.47;10.43;;;;;;;4.57;100.00;100852.80;4922016;58;1143105;-69
2023/10/18 06:51:17;;;;;;;21.13;12.27;;;;;;;4.81;100.00;100850.30;4886444;57;1141443;-68
2023/10/18 06:56:20;;;;;;;19.90;11.07;;;;;;;4.97;100.00;100850.41;4845873;58;1141429;-69
2023/10/18 07:01:32;;;;;;;18.13;10.33;;;;;;;5.03;100.00;100848.80;4862069;58;1140872;-72
2023/10/18 07:06:37;;;;;;;20.27;8.97;;;;;;;5.08;100.00;100844.16;4830710;59;1140512;-80
2023/10/18 07:11:43;;;;;;;18.20;8.23;;;;;;;5.32;100.00;100847.80;4721451;59;1141029;-78
2023/10/18 07:16:49;;;;;;;18.87;9.53;;;;;;;5.46;100.00;100843.55;4703596;60;1143442;-73
2023/10/18 07:21:57;;;;;;;22.48;10.28;;;;;;;5.52;100.00;100848.92;4942408;57;1138911;-69
2023/10/18 07:27:09;;;;;;;16.05;9.08;;;;;;;5.60;100.00;100858.12;4920155;57;1141142;-81
2023/10/18 07:32:13;;;;;;;18.27;9.87;;;;;;;5.75;100.00;100847.29;4966657;57;1141238;-70
2023/10/18 07:37:43;;;;;;;19.35;11.25;;;;;;;5.91;100.00;100846.05;4973081;57;1138752;-65
2023/10/18 07:42:50;;;;;;;19.27;11.53;;;;;;;6.04;100.00;100834.42;4935741;57;1141064;-69
2023/10/18 07:47:43;;;;;;;19.30;9.67;;;;;;;6.35;100.00;100831.83;4867454;58;1143306;-66
2023/10/18 07:52:45;;;;;;;14.13;8.57;;;;;;;6.61;100.00;100823.80;4904091;58;1138861;-69
2023/10/18 07:57:54;;;;;;;18.00;9.00;;;;;;;6.86;100.00;100831.16;4712498;59;1139035;-68
2023/10/18 08:02:59;;;;;;;18.77;9.33;;;;;;;7.02;100.00;100838.55;4716164;59;1140895;-68
2023/10/18 08:08:08;;;;;;;15.70;8.37;;;;;;;7.24;100.00;100830.23;4790442;59;1140973;-69
2023/10/18 08:13:16;;;;;;;14.87;7.67;;;;;;;7.39;100.00;100826.23;4775297;58;1139146;-69
2023/10/18 08:18:39;;;;;;;15.27;7.97;;;;;;;7.58;100.00;100828.61;4731048;59;1140806;-69
2023/10/18 08:28:42;;;;;;;15.08;5.53;;;;;;;8.00;100.00;100825.61;4845136;56;1140934;-67
2023/10/18 08:33:49;;;;;;;9.18;5.12;;;;;;;8.17;100.00;100823.24;4912205;57;1141089;-70
2023/10/18 08:38:54;;;;;;;14.37;5.67;;;;;;;8.33;100.00;100826.17;4913473;56;1139804;-68
2023/10/18 08:44:10;;;;;;;8.28;4.90;;;;;;;8.54;100.00;100827.92;4933205;57;1140917;-70
2023/10/18 08:49:15;;;;;;;6.83;3.60;;;;;;;8.79;100.00;100824.06;4828078;58;1138897;-67
2023/10/18 08:54:22;;;;;;;10.03;5.07;;;;;;;9.01;100.00;100825.30;4857614;57;1139603;-68
2023/10/18 08:59:28;;;;;;;7.73;4.50;;;;;;;9.10;100.00;100818.92;4896920;58;1141073;-71
2023/10/18 09:04:35;;;;;;;8.70;4.50;;;;;;;9.21;100.00;100827.91;4916877;57;1136760;-67
2023/10/18 09:09:42;;;;;;;13.50;5.20;;;;;;;9.27;100.00;100835.42;4935412;57;1136808;-68
2023/10/18 09:14:50;;;;;;;7.07;3.27;;;;;;;9.39;100.00;100835.44;4917705;57;1138836;-67
2023/10/18 09:20:15;;;;;;;5.08;2.80;;;;;;;9.39;100.00;100836.77;4956589;57;1136718;-69
2023/10/18 09:25:06;;;;;;;6.77;3.07;;;;;;;9.34;100.00;100835.37;4959421;56;1136871;-69
2023/10/18 09:30:18;;;;;;;11.93;3.70;;;;;;;9.39;100.00;100836.77;4877834;58;1136622;-70
2023/10/18 09:35:27;;;;;;;12.73;4.77;;;;;;;9.47;100.00;100835.75;4936011;58;1138891;-69
2023/10/18 09:40:27;;;;;;;12.87;3.40;;;;;;;9.58;100.00;100828.44;4797160;59;1141112;-66
2023/10/18 09:45:33;;;;;;;4.23;2.60;;;;;;;9.72;100.00;100831.45;4894581;58;1141224;-73
2023/10/18 09:50:41;;;;;;;12.17;4.13;;;;;;;9.81;100.00;100831.64;4918598;58;1139077;-80
2023/10/18 09:55:47;;;;;;;6.83;3.33;;;;;;;9.82;100.00;100826.73;4888194;58;1141061;-77
2023/10/18 10:01:13;;;;;;;15.00;3.90;;;;;;;9.83;100.00;100811.26;4895046;58;1138970;-82
2023/10/18 10:06:07;;;;;;;13.10;3.20;;;;;;;10.01;100.00;100809.13;4827272;58;1141155;-86
2023/10/18 10:11:14;;;;;;;4.93;2.10;;;;;;;10.09;100.00;100806.77;4871680;57;1143128;-75
2023/10/18 10:16:24;;;;;;;16.50;4.80;;;;;;;10.09;100.00;100796.20;4920474;57;1141038;-67
2023/10/18 10:21:31;;;;;;;7.63;3.40;;;;;;;10.18;100.00;100798.68;4986962;56;1143059;-79
2023/10/18 10:26:42;;;;;;;8.48;3.40;;;;;;;10.25;100.00;100785.88;4906005;57;1141063;-70
2023/10/18 10:32:07;;;;;;;12.82;3.08;;;;;;;10.34;100.00;100783.44;4891909;56;1141028;-76
2023/10/18 10:37:23;;;;;;;11.57;4.70;;;;;;;10.50;100.00;100784.50;4737245;58;1143159;-74
2023/10/18 10:42:50;;;;;;;8.50;3.55;;;;;;;10.66;100.00;100775.80;4731596;59;1143228;-75
2023/10/18 10:47:57;;;;;;;9.43;3.95;;;;;;;10.81;100.00;100766.73;4762813;59;1140852;-77
2023/10/18 10:52:58;;;;;;;2.93;2.00;;;;;;;10.86;100.00;100763.23;4867273;58;1141045;-82
2023/10/18 10:58:17;;;;;;;4.83;2.30;;;;;;;10.97;100.00;100761.13;4789781;58;1141106;-81
2023/10/18 11:03:53;;;;;;;9.03;4.80;;;;;;;11.07;100.00;100755.50;4790061;59;1141272;-90
2023/10/18 11:08:56;;;;;;;5.03;2.80;;;;;;;11.20;100.00;100746.98;4837602;59;1141030;-74
2023/10/18 11:14:05;;;;;;;8.23;2.70;;;;;;;11.35;100.00;100735.69;4795915;58;1141982;-72
2023/10/18 11:19:15;;;;;;;6.87;2.50;;;;;;;11.50;100.00;100739.80;4841796;58;1140928;-85
2023/10/18 11:24:21;;;;;;;6.33;3.03;;;;;;;11.64;100.00;100733.41;4744379;59;1141244;-71
2023/10/18 11:29:25;;;;;;;18.37;6.37;;;;;;;11.83;100.00;100732.36;4808679;59;1141135;-70
2023/10/18 11:34:31;;;;;;;6.20;3.25;;;;;;;12.09;100.00;100730.75;4772406;59;1142716;-75
2023/10/18 11:39:40;;;;;;;11.53;4.37;;;;;;;12.32;100.00;100710.70;4803590;59;1140850;-88
2023/10/18 11:44:48;;;;;;;2.40;2.17;;;;;;;12.60;100.00;100717.70;4727272;59;1142870;-83
2023/10/18 11:49:57;;;;;;;8.85;3.62;;;;;;;12.63;100.00;100709.02;4765840;60;1141536;-73
2023/10/18 11:55:10;;;;;;;6.10;2.10;;;;;;;12.71;100.00;100709.69;4806788;59;1141054;-78
2023/10/18 12:00:27;;;;;;;35.83;14.43;;;;;;;12.82;100.00;100697.71;4790366;58;1141065;-80
2023/10/18 12:05:27;;;;;;;12.07;3.47;;;;;;;13.03;100.00;100698.53;4790205;58;1145192;-73
2023/10/18 12:10:35;;;;;;;4.43;2.90;;;;;;;13.07;100.00;100686.33;4829011;58;1143208;-77
2023/10/18 12:15:41;;;;;;;9.13;2.67;;;;;;;13.18;100.00;100682.30;4746628;60;1140952;-81
2023/10/18 12:20:47;;;;;;;6.67;2.70;;;;;;;13.27;100.00;100669.08;4812078;59;1149612;-80
2023/10/18 12:25:52;;;;;;;35.70;12.93;;;;;;;13.28;100.00;100659.30;4697660;60;1141120;-76
2023/10/18 12:31:00;;;;;;;4.22;1.70;;;;;;;13.41;100.00;100657.26;4926149;58;1145102;-79
2023/10/18 12:36:08;;;;;;;5.33;2.40;;;;;;;13.56;100.00;100651.09;4790542;59;1141096;-75
2023/10/18 12:46:26;;;;;;;3.73;2.10;;;;;;;13.79;100.00;100632.59;4936126;57;1141019;-86
2023/10/18 12:51:40;;;;;;;4.23;2.17;;;;;;;13.98;100.00;100624.66;4907021;57;1140971;-81
2023/10/18 12:56:54;;;;;;;;;;;;;;;13.95;100.00;100622.27;4919108;57;1141003;-81
2023/10/18 13:01:47;;;;;;;9.77;3.30;;;;;;;13.89;100.00;100615.36;4844922;58;978447;-77
2023/10/18 13:06:53;;;;;;;5.95;2.10;;;;;;;13.97;100.00;100608.84;4911804;57;1138925;-84
2023/10/18 13:12:07;;;;;;;5.50;3.27;;;;;;;14.05;100.00;100604.50;4790247;60;1140933;-75
2023/10/18 13:17:13;;;;;;;6.00;3.20;;;;;;;14.05;82.29;100595.70;4810716;60;1140923;-83
2023/10/18 13:22:18;;;;;;;5.30;2.40;;;;;;;14.08;82.04;100588.27;4791705;59;1138761;-73
2023/10/18 13:27:33;;;;;;;17.37;2.70;;;;;;;14.19;83.60;100585.98;4901817;57;1138953;-78
2023/10/18 13:32:32;;;;;;;6.15;1.75;;;;;;;14.40;80.69;100584.02;4910976;58;1141065;-74
2023/10/18 13:37:38;;;;;;;8.57;4.10;;;;;;;14.52;82.36;100579.86;4811854;59;1139081;-87
2023/10/18 13:42:45;;;;;;;2.30;2.10;;;;;;;14.60;81.57;100577.34;4914773;57;1139110;-85
2023/10/18 13:47:52;;;;;;;2.07;1.83;;;;;;;14.84;81.02;100563.03;4796432;59;1138633;-72
2023/10/18 13:52:58;;;;;;;11.18;3.80;;;;;;;14.98;82.02;100561.72;4823271;57;1139058;-86
2023/10/18 13:58:07;;;;;;;5.95;1.70;;;;;;;14.91;79.32;100550.00;4902561;57;1141133;-78
2023/10/18 14:03:13;;;;;;;5.67;1.47;;;;;;;14.89;79.77;100553.30;4907909;58;1138806;-78
2023/10/18 14:08:18;;;;;;;3.00;1.87;;;;;;;14.81;80.21;100545.20;4935115;58;1138849;-72
2023/10/18 14:13:27;;;;;;;2.07;1.10;;;;;;;14.91;80.87;100530.86;4953796;58;1139066;-76
2023/10/18 14:18:33;;;;;;;5.07;1.47;;;;;;;14.87;79.71;100532.63;4791409;59;1138818;-77
2023/10/18 14:23:40;;;;;;;3.25;1.80;;;;;;;14.75;79.45;100530.15;4791219;58;1139039;-74
2023/10/18 14:28:47;;;;;;;9.60;2.63;;;;;;;14.78;80.26;100528.53;4924896;58;1138953;-75
2023/10/18 14:33:53;;;;;;;5.70;2.30;;;;;;;15.78;82.58;100524.55;4791882;58;1138951;-81
2023/10/18 14:38:59;;;;;;;5.93;2.10;;;;;;;17.03;78.37;100514.92;4717570;60;1139103;-77
2023/10/18 14:44:07;;;;;;;5.65;2.15;;;;;;;16.33;75.79;100509.67;4738248;60;1138935;-81
2023/10/18 14:49:13;;;;;;;10.43;5.27;;;;;;;15.74;74.95;100510.33;4713949;60;1139331;-80
2023/10/18 14:54:19;;;;;;;8.50;4.07;;;;;;;15.31;76.13;100507.02;4714024;60;1141103;-83
2023/10/18 14:59:25;;;;;;;10.57;5.57;;;;;;;15.89;79.10;100506.66;4660416;61;1138783;-78
2023/10/18 15:04:32;;;;;;;3.77;2.80;;;;;;;17.07;76.59;100493.07;4715530;60;1140997;-79
2023/10/18 15:09:41;;;;;;;10.27;4.80;;;;;;;17.37;73.13;100502.35;4880793;58;1138974;-79
2023/10/18 15:14:45;;;;;;;21.30;10.73;;;;;;;16.80;72.50;100495.97;4955025;57;1141098;-80
2023/10/18 15:19:52;;;;;;;27.87;14.40;;;;;;;16.25;74.27;100496.25;4791087;60;1143099;-85
2023/10/18 15:24:59;;;;;;;25.53;13.30;;;;;;;15.74;75.20;100493.83;4791128;60;1143099;-81
2023/10/18 15:30:07;;;;;;;22.70;7.87;;;;;;;15.21;76.39;100492.44;4807660;60;1143935;-77
2023/10/18 15:35:13;;;;;;;35.57;8.43;;;;;;;14.79;77.71;100492.09;4915095;57;1140989;-74
2023/10/18 15:40:20;;;;;;;82.30;13.10;;;;;;;14.29;78.08;100493.69;4829768;59;1140937;-81
2023/10/18 15:45:26;;;;;;;72.60;16.87;;;;;;;13.72;78.86;100494.11;4885012;58;1142945;-78
2023/10/18 15:50:31;;;;;;;82.17;15.63;;;;;;;13.31;80.00;100496.98;4865391;58;1142856;-73
2023/10/18 15:55:37;;;;;;;69.47;15.97;;;;;;;12.95;81.43;100493.09;4802952;58;1143170;-80
2023/10/18 16:00:44;;;;;;;36.50;15.77;;;;;;;12.74;82.36;100487.00;4926310;58;1143077;-83
2023/10/18 16:05:51;;;;;;;32.70;9.88;;;;;;;12.51;83.20;100487.68;4772968;57;1143045;-75
2023/10/18 16:10:58;;;;;;;40.65;14.10;;;;;;;12.22;83.88;100487.00;4944711;57;1141004;-77
2023/10/18 16:16:11;;;;;;;63.48;16.82;;;;;;;12.01;85.03;100491.97;4926628;57;1143010;-81
2023/10/18 16:21:17;;;;;;;33.00;13.00;;;;;;;11.83;85.67;100491.70;4790912;59;1142898;-86
2023/10/18 16:26:26;;;;;;;40.23;18.02;;;;;;;11.56;85.99;100493.47;4905837;57;1143226;-79
2023/10/18 16:31:33;;;;;;;42.30;23.77;;;;;;;11.32;86.89;100482.20;4784090;57;1143256;-80
2023/10/18 16:36:38;;;;;;;47.23;28.50;;;;;;;11.20;88.38;100481.41;4934184;57;1143076;-78
2023/10/18 16:41:44;;;;;;;62.30;36.97;;;;;;;11.11;88.96;100488.30;4790322;59;1142996;-72
2023/10/18 16:46:50;;;;;;;66.30;43.20;;;;;;;10.97;89.44;100477.13;4790207;59;1188324;-81
2023/10/18 16:51:58;;;;;;;85.20;42.23;;;;;;;10.85;90.16;100477.12;4809644;58;1142934;-87
2023/10/18 16:57:04;;;;;;;79.33;45.03;;;;;;;10.74;90.33;100471.84;4794861;59;1152542;-83
2023/10/18 17:02:11;;;;;;;91.43;44.57;;;;;;;10.67;90.97;100478.59;4825765;58;1143045;-76
2023/10/18 17:07:17;;;;;;;87.30;44.67;;;;;;;10.63;91.57;100471.86;4815277;58;1143299;-78
2023/10/18 17:12:23;;;;;;;24.23;11.60;;;;;;;10.59;91.34;100473.05;4961304;57;1142942;-73
2023/10/18 17:17:30;;;;;;;141.77;69.17;;;;;;;10.46;90.90;100474.97;4789621;60;1143068;-76
2023/10/18 17:22:36;;;;;;;187.00;94.72;;;;;;;10.20;91.33;100476.52;4903842;58;1145296;-80
2023/10/18 17:27:42;;;;;;;176.37;77.87;;;;;;;10.08;92.29;100466.83;4808471;59;1142944;-74
2023/10/18 17:32:49;;;;;;;134.77;54.50;;;;;;;10.03;92.85;100453.63;4789846;59;1142941;-75
2023/10/18 17:37:56;;;;;;;92.30;39.53;;;;;;;9.90;92.50;100452.40;4709818;59;1143043;-87
2023/10/18 17:43:04;;;;;;;53.75;25.82;;;;;;;9.82;92.96;100449.48;4823373;59;1140871;-72
2023/10/18 17:48:14;;;;;;;101.20;52.00;;;;;;;9.79;92.88;100451.87;4792186;58;1141143;-74
2023/10/18 17:53:16;;;;;;;39.93;18.60;;;;;;;9.71;93.07;100440.20;4910840;58;1143208;-74
2023/10/18 17:58:22;;;;;;;54.17;27.83;;;;;;;9.67;93.56;100437.42;4915891;57;1141227;-85
2023/10/18 18:03:29;;;;;;;67.70;30.57;;;;;;;9.49;92.42;100433.88;4893057;57;1140937;-77
2023/10/18 18:08:38;;;;;;;84.50;36.15;;;;;;;9.15;92.30;100431.59;4911558;55;1141456;-87
2023/10/18 18:13:45;;;;;;;102.23;45.63;;;;;;;8.95;93.74;100429.55;4973183;57;1139027;-78
2023/10/18 18:18:57;;;;;;;110.10;55.40;;;;;;;8.80;93.35;100426.70;4790544;59;1140962;-80
2023/10/18 18:23:58;;;;;;;102.30;52.13;;;;;;;8.68;94.37;100423.14;4904877;56;1140811;-76
2023/10/18 18:29:04;;;;;;;46.70;28.30;;;;;;;8.55;94.48;100419.70;4967183;56;1141023;-80
2023/10/18 18:34:10;;;;;;;37.53;17.90;;;;;;;8.41;94.86;100419.80;4995803;58;1138855;-70
2023/10/18 18:39:16;;;;;;;31.60;16.27;;;;;;;8.22;95.25;100418.07;4980368;57;1139425;-79
2023/10/18 18:44:21;;;;;;;63.50;31.97;;;;;;;8.12;95.80;100421.33;5010722;57;1139028;-71
2023/10/18 18:49:28;;;;;;;35.63;16.40;;;;;;;8.13;96.54;100415.11;4921814;57;1140698;-76
2023/10/18 18:54:33;;;;;;;28.60;12.47;;;;;;;8.09;96.09;100404.44;4911780;57;1140919;-83
2023/10/18 18:59:43;;;;;;;31.43;14.77;;;;;;;8.00;97.07;100402.42;4932627;57;1140626;-80
2023/10/18 19:04:49;;;;;;;33.57;13.37;;;;;;;7.90;97.18;100388.68;4910385;57;1140788;-82
2023/10/18 19:09:55;;;;;;;74.27;27.57;;;;;;;7.74;97.50;100387.56;4903895;57;1139181;-83
2023/10/18 19:15:00;;;;;;;78.33;29.30;;;;;;;7.67;98.29;100396.81;4924179;58;1138940;-83
2023/10/18 19:20:12;;;;;;;57.15;24.35;;;;;;;7.69;98.70;100393.61;4791393;59;1138978;-83
2023/10/18 19:25:20;;;;;;;116.47;45.50;;;;;;;7.46;97.46;100394.32;4911511;58;1138902;-79
2023/10/18 19:30:21;;;;;;;69.37;27.30;;;;;;;7.45;98.81;100397.90;4809805;59;1141155;-77
2023/10/18 19:35:28;;;;;;;65.97;24.93;;;;;;;7.35;97.72;100398.95;4718931;60;1139066;-84
2023/10/18 19:40:34;;;;;;;65.77;28.97;;;;;;;7.17;98.24;100404.98;4792242;58;1138950;-84
2023/10/18 19:45:39;;;;;;;68.53;29.27;;;;;;;7.19;99.26;100404.38;4832377;57;1139102;-75
2023/10/18 19:50:45;;;;;;;52.77;22.23;;;;;;;7.25;99.55;100403.15;4737009;59;1138752;-84
2023/10/18 19:55:51;;;;;;;77.57;36.53;;;;;;;7.17;98.43;100397.09;4740857;58;1138776;-86
2023/10/18 20:00:57;;;;;;;82.83;35.07;;;;;;;7.06;98.59;100389.03;4680714;60;1138919;-79
2023/10/18 20:06:03;;;;;;;30.92;12.88;;;;;;;6.90;98.05;100379.14;5003918;57;1138981;-80
2023/10/18 20:11:09;;;;;;;23.18;12.35;;;;;;;6.60;98.52;100376.22;4789904;59;1139053;-79
2023/10/18 20:16:17;;;;;;;36.10;15.70;;;;;;;6.44;99.11;100370.24;4909281;57;1139129;-84
2023/10/18 20:21:22;;;;;;;43.23;19.53;;;;;;;6.33;100.00;100360.89;4925897;57;1139011;-76
2023/10/18 20:26:28;;;;;;;33.90;14.27;;;;;;;6.35;100.00;100365.58;4774674;59;1141034;-80
2023/10/18 20:31:34;;;;;;;50.55;23.75;;;;;;;6.33;100.00;100354.32;4782846;60;1140856;-80
2023/10/18 20:36:40;;;;;;;59.60;31.63;;;;;;;6.32;100.00;100344.28;4923858;58;1141233;-87
2023/10/18 20:41:46;;;;;;;68.93;31.70;;;;;;;6.30;100.00;100346.63;4907928;58;1141411;-76
2023/10/18 20:46:52;;;;;;;84.07;36.70;;;;;;;6.23;100.00;100349.28;4790538;60;1141243;-77
2023/10/18 20:51:59;;;;;;;38.80;18.30;;;;;;;6.14;100.00;100337.55;4808546;59;1140925;-75
2023/10/18 20:57:06;;;;;;;42.43;20.17;;;;;;;5.97;100.00;100323.30;4790909;59;1141354;-81
2023/10/18 21:02:17;;;;;;;31.07;15.57;;;;;;;5.91;100.00;100328.95;4802357;57;1140958;-75
2023/10/18 21:07:25;;;;;;;25.72;11.68;;;;;;;5.85;100.00;100320.09;4749980;59;1143124;-77
2023/10/18 21:12:35;;;;;;;22.37;11.70;;;;;;;5.79;100.00;100306.91;4897976;57;1143126;-81
2023/10/18 21:17:38;;;;;;;39.20;18.70;;;;;;;5.68;100.00;100309.31;4910657;57;1143206;-78
2023/10/18 21:22:45;;;;;;;37.00;17.83;;;;;;;5.78;100.00;100309.61;4810566;60;1141143;-81
2023/10/18 21:27:52;;;;;;;35.25;17.82;;;;;;;5.74;100.00;100306.80;4926482;57;1141117;-76
2023/10/18 21:32:58;;;;;;;45.23;20.43;;;;;;;5.62;100.00;100311.86;4986597;57;1140987;-82
2023/10/18 21:38:03;;;;;;;48.02;20.85;;;;;;;5.52;100.00;100315.95;5010379;57;1141133;-85
2023/10/18 21:43:09;;;;;;;43.48;18.85;;;;;;;5.52;100.00;100304.61;4990375;57;1141190;-76
2023/10/18 21:48:16;;;;;;;47.37;18.87;;;;;;;5.52;100.00;100298.90;4942427;57;1141297;-72
2023/10/18 21:53:21;;;;;;;37.10;17.65;;;;;;;5.48;100.00;100290.02;4814876;59;1142981;-82
2023/10/18 21:58:27;;;;;;;38.77;19.03;;;;;;;5.46;100.00;100289.27;4942665;57;1143164;-79
2023/10/18 22:03:35;;;;;;;38.90;20.63;;;;;;;5.36;100.00;100294.66;4859571;58;1141413;-78
2023/10/18 22:08:41;;;;;;;34.98;16.40;;;;;;;5.31;100.00;100291.02;4864850;59;1140927;-73
2023/10/18 22:13:49;;;;;;;50.77;22.43;;;;;;;5.24;100.00;100291.00;4903658;57;1140835;-84
2023/10/18 22:18:54;;;;;;;47.00;20.90;;;;;;;5.17;100.00;100282.67;4906215;57;1141078;-85
2023/10/18 22:24:01;;;;;;;35.30;18.00;;;;;;;5.11;100.00;100276.46;4901817;57;1141382;-80
2023/10/18 22:29:06;;;;;;;56.53;24.10;;;;;;;4.98;100.00;100261.09;4808733;60;1141019;-80
2023/10/18 22:34:13;;;;;;;45.17;20.57;;;;;;;4.94;100.00;100260.87;4789637;60;1141064;-82
2023/10/18 22:39:29;;;;;;;49.83;21.63;;;;;;;4.94;100.00;100256.95;4895745;57;1141085;-82
2023/10/18 22:49:38;;;;;;;39.13;20.05;;;;;;;4.88;100.00;100242.91;4716510;59;1140953;-84
2023/10/18 22:55:19;;;;;;;41.73;20.63;;;;;;;4.78;100.00;100235.19;4799998;58;1140947;-80
2023/10/18 23:00:13;;;;;;;42.03;19.80;;;;;;;4.78;100.00;100230.80;4894915;58;1141133;-71
2023/10/18 23:05:22;;;;;;;51.63;21.13;;;;;;;4.82;100.00;100238.86;4867008;59;1141068;-82
2023/10/18 23:15:49;;;;;;;50.08;22.02;;;;;;;4.73;100.00;100215.83;4776239;59;1143174;-77
2023/10/18 23:42:14;;;;;;;47.07;23.13;;;;;;;4.68;100.00;100187.74;4914997;57;1140824;-80
2023/10/18 23:47:29;;;;;;;39.70;19.70;;;;;;;4.72;100.00;100177.47;4817045;58;1141019;-80
2023/10/18 23:52:49;;;;;;;80.07;30.70;;;;;;;4.84;100.00;100171.50;4996621;57;1142970;-78
2023/10/18 23:57:47;;;;;;;67.92;25.77;;;;;;;4.93;100.00;100167.47;4959165;56;1141079;-71
